AIQ658 VTBD-VVTS
Flight info
| Callsign | AIQ658 |
|---|---|
| Flight time | N/A |
| Altitude | 35000 |
| Route | GORSI3C GORSI N506 ELMOP R468 SAPEN/K0859F350 SAPEN5B |
| Aircraft | A320/M-SDE3FGHIRWY/LB1 |
Departure
| Time | 2026-05-06 12:55 |
|---|---|
| Airport | Don Mueang International Airport (VTBD) |
Arrival
| Time | N/A |
|---|---|
| Airport | Tan Son Nhat International Airport (VVTS) |
| Time | Latitude | Longitude | Altitude | Speed | Heading |
|---|---|---|---|---|---|
| 2026-05-06 12:39 | 13.92373 | 100.60571 | 17 ft | 0 kts | 298° |
| 2026-05-06 12:47 | 13.92367 | 100.60583 | 18 ft | 3 kts | 302° |
| 2026-05-06 12:47 | 13.92355 | 100.60600 | 19 ft | 3 kts | 311° |
| 2026-05-06 12:47 | 13.92341 | 100.60614 | 21 ft | 3 kts | 325° |
| 2026-05-06 12:47 | 13.92324 | 100.60624 | 19 ft | 3 kts | 349° |
| 2026-05-06 12:48 | 13.92308 | 100.60624 | 18 ft | 2 kts | 25° |
| 2026-05-06 12:48 | 13.92305 | 100.60623 | 18 ft | 0 kts | 28° |
| 2026-05-06 12:51 | 13.92334 | 100.60639 | 18 ft | 11 kts | 28° |
| 2026-05-06 12:51 | 13.92395 | 100.60674 | 18 ft | 10 kts | 29° |
| 2026-05-06 12:51 | 13.92451 | 100.60705 | 18 ft | 9 kts | 28° |
| 2026-05-06 12:51 | 13.92501 | 100.60734 | 18 ft | 8 kts | 28° |
| 2026-05-06 12:52 | 13.92548 | 100.60760 | 17 ft | 9 kts | 28° |
| 2026-05-06 12:52 | 13.92616 | 100.60798 | 17 ft | 13 kts | 28° |
| 2026-05-06 12:52 | 13.92706 | 100.60849 | 17 ft | 14 kts | 29° |
| 2026-05-06 12:52 | 13.92743 | 100.60917 | 17 ft | 11 kts | 113° |
| 2026-05-06 12:53 | 13.92702 | 100.60996 | 20 ft | 13 kts | 119° |
| 2026-05-06 12:53 | 13.92653 | 100.61088 | 18 ft | 16 kts | 118° |
| 2026-05-06 12:53 | 13.92595 | 100.61197 | 17 ft | 19 kts | 118° |
| 2026-05-06 12:53 | 13.92530 | 100.61316 | 16 ft | 17 kts | 118° |
| 2026-05-06 12:54 | 13.92478 | 100.61414 | 16 ft | 16 kts | 118° |
| 2026-05-06 12:54 | 13.92425 | 100.61512 | 16 ft | 12 kts | 120° |
| 2026-05-06 12:54 | 13.92380 | 100.61513 | 14 ft | 0 kts | 208° |
| 2026-05-06 12:54 | 13.92379 | 100.61513 | 14 ft | 1 kts | 208° |
| 2026-05-06 12:55 | 13.92256 | 100.61444 | 16 ft | 56 kts | 208° |
| 2026-05-06 12:55 | 13.91699 | 100.61131 | 18 ft | 122 kts | 208° |
| 2026-05-06 12:55 | 13.90803 | 100.60655 | 128 ft | 161 kts | 206° |
| 2026-05-06 12:55 | 13.89831 | 100.60103 | 870 ft | 159 kts | 206° |
| 2026-05-06 12:56 | 13.88850 | 100.59551 | 1552 ft | 165 kts | 208° |
| 2026-05-06 12:56 | 13.88033 | 100.58629 | 1904 ft | 190 kts | 244° |
| 2026-05-06 12:56 | 13.87521 | 100.57298 | 2227 ft | 214 kts | 246° |
| 2026-05-06 12:56 | 13.86949 | 100.55790 | 2639 ft | 238 kts | 247° |
| 2026-05-06 12:57 | 13.86311 | 100.54122 | 3070 ft | 261 kts | 248° |
| 2026-05-06 12:57 | 13.85622 | 100.52328 | 3743 ft | 273 kts | 248° |
| 2026-05-06 12:57 | 13.84911 | 100.50484 | 4595 ft | 279 kts | 248° |
| 2026-05-06 12:57 | 13.84172 | 100.48649 | 5431 ft | 282 kts | 240° |
| 2026-05-06 12:58 | 13.82975 | 100.47044 | 6301 ft | 283 kts | 225° |
| 2026-05-06 12:58 | 13.81609 | 100.45564 | 7153 ft | 286 kts | 225° |
| 2026-05-06 12:58 | 13.80221 | 100.44072 | 7983 ft | 289 kts | 225° |
| 2026-05-06 12:58 | 13.78714 | 100.42729 | 8765 ft | 293 kts | 209° |
| 2026-05-06 12:59 | 13.76804 | 100.42012 | 9551 ft | 295 kts | 187° |
| 2026-05-06 12:59 | 13.74752 | 100.42038 | 10218 ft | 301 kts | 173° |
| 2026-05-06 12:59 | 13.72581 | 100.42254 | 10461 ft | 325 kts | 173° |
| 2026-05-06 12:59 | 13.70247 | 100.42487 | 10657 ft | 348 kts | 172° |
| 2026-05-06 13:00 | 13.67856 | 100.43070 | 11049 ft | 358 kts | 156° |
| 2026-05-06 13:00 | 13.65682 | 100.44352 | 11640 ft | 362 kts | 140° |
| 2026-05-06 13:00 | 13.63967 | 100.46207 | 12241 ft | 365 kts | 123° |
| 2026-05-06 13:00 | 13.62840 | 100.48546 | 12900 ft | 367 kts | 106° |
| 2026-05-06 13:01 | 13.62312 | 100.51122 | 13558 ft | 370 kts | 99° |
| 2026-05-06 13:01 | 13.61860 | 100.53731 | 14142 ft | 373 kts | 99° |
| 2026-05-06 13:01 | 13.61396 | 100.56376 | 14694 ft | 377 kts | 99° |
| 2026-05-06 13:01 | 13.60926 | 100.59030 | 15236 ft | 381 kts | 99° |
| 2026-05-06 13:02 | 13.60452 | 100.61691 | 15763 ft | 385 kts | 99° |
| 2026-05-06 13:02 | 13.59966 | 100.64406 | 16301 ft | 388 kts | 99° |
| 2026-05-06 13:02 | 13.59474 | 100.67158 | 16845 ft | 391 kts | 99° |
| 2026-05-06 13:02 | 13.58981 | 100.69924 | 17378 ft | 395 kts | 99° |
| 2026-05-06 13:03 | 13.58482 | 100.72718 | 17896 ft | 398 kts | 99° |
| 2026-05-06 13:03 | 13.57987 | 100.75495 | 18357 ft | 401 kts | 99° |
| 2026-05-06 13:03 | 13.57480 | 100.78327 | 18794 ft | 404 kts | 99° |
| 2026-05-06 13:03 | 13.56966 | 100.81184 | 19231 ft | 406 kts | 99° |
| 2026-05-06 13:04 | 13.56450 | 100.84052 | 19670 ft | 409 kts | 99° |
| 2026-05-06 13:04 | 13.55929 | 100.86953 | 20101 ft | 412 kts | 99° |
| 2026-05-06 13:04 | 13.55415 | 100.89820 | 20534 ft | 415 kts | 99° |
| 2026-05-06 13:04 | 13.54890 | 100.92744 | 20934 ft | 417 kts | 99° |
| 2026-05-06 13:05 | 13.54360 | 100.95696 | 21340 ft | 420 kts | 99° |
| 2026-05-06 13:05 | 13.53828 | 100.98661 | 21752 ft | 422 kts | 99° |
| 2026-05-06 13:05 | 13.53291 | 101.01653 | 22171 ft | 425 kts | 99° |
| 2026-05-06 13:05 | 13.52761 | 101.04646 | 22580 ft | 427 kts | 98° |
| 2026-05-06 13:06 | 13.52524 | 101.07696 | 22951 ft | 429 kts | 91° |
| 2026-05-06 13:06 | 13.52421 | 101.10781 | 23330 ft | 432 kts | 91° |
| 2026-05-06 13:06 | 13.52316 | 101.13838 | 23650 ft | 435 kts | 91° |
| 2026-05-06 13:06 | 13.52208 | 101.16956 | 23967 ft | 437 kts | 91° |
| 2026-05-06 13:07 | 13.52096 | 101.20089 | 24285 ft | 439 kts | 91° |
| 2026-05-06 13:07 | 13.51980 | 101.23206 | 24580 ft | 441 kts | 91° |
| 2026-05-06 13:07 | 13.51860 | 101.26367 | 24882 ft | 443 kts | 91° |
| 2026-05-06 13:07 | 13.51743 | 101.29544 | 25181 ft | 445 kts | 91° |
| 2026-05-06 13:08 | 13.51592 | 101.32732 | 25451 ft | 448 kts | 95° |
| 2026-05-06 13:08 | 13.51024 | 101.35894 | 25724 ft | 452 kts | 105° |
| 2026-05-06 13:08 | 13.49935 | 101.38929 | 26008 ft | 455 kts | 115° |
| 2026-05-06 13:08 | 13.48487 | 101.41841 | 26295 ft | 457 kts | 117° |
| 2026-05-06 13:09 | 13.47024 | 101.44750 | 26587 ft | 459 kts | 117° |
| 2026-05-06 13:09 | 13.45557 | 101.47678 | 26878 ft | 461 kts | 116° |
| 2026-05-06 13:09 | 13.44091 | 101.50613 | 27157 ft | 463 kts | 116° |
| 2026-05-06 13:09 | 13.42642 | 101.53526 | 27429 ft | 465 kts | 116° |
| 2026-05-06 13:10 | 13.41167 | 101.56490 | 27700 ft | 467 kts | 116° |
| 2026-05-06 13:10 | 13.39684 | 101.59466 | 27949 ft | 469 kts | 116° |
| 2026-05-06 13:10 | 13.38205 | 101.62475 | 28208 ft | 471 kts | 116° |
| 2026-05-06 13:10 | 13.36746 | 101.65496 | 28464 ft | 473 kts | 116° |
| 2026-05-06 13:11 | 13.35309 | 101.68500 | 28706 ft | 475 kts | 115° |
| 2026-05-06 13:11 | 13.33849 | 101.71562 | 28940 ft | 477 kts | 115° |
| 2026-05-06 13:11 | 13.32383 | 101.74634 | 29176 ft | 479 kts | 115° |
| 2026-05-06 13:11 | 13.30910 | 101.77713 | 29410 ft | 481 kts | 115° |
| 2026-05-06 13:12 | 13.29423 | 101.80802 | 29665 ft | 482 kts | 116° |
| 2026-05-06 13:12 | 13.27947 | 101.83848 | 29991 ft | 482 kts | 116° |
| 2026-05-06 13:12 | 13.26447 | 101.86942 | 30279 ft | 481 kts | 116° |
| 2026-05-06 13:12 | 13.24952 | 101.90027 | 30586 ft | 480 kts | 116° |
| 2026-05-06 13:13 | 13.23481 | 101.93060 | 30887 ft | 480 kts | 116° |
| 2026-05-06 13:13 | 13.21995 | 101.96124 | 31173 ft | 479 kts | 116° |
| 2026-05-06 13:13 | 13.20508 | 101.99187 | 31475 ft | 479 kts | 116° |
| 2026-05-06 13:13 | 13.19019 | 102.02254 | 31769 ft | 479 kts | 116° |
| 2026-05-06 13:14 | 13.17537 | 102.05317 | 32058 ft | 479 kts | 116° |
| 2026-05-06 13:14 | 13.16057 | 102.08383 | 32311 ft | 480 kts | 116° |
| 2026-05-06 13:14 | 13.14573 | 102.11449 | 32614 ft | 480 kts | 116° |
| 2026-05-06 13:14 | 13.13085 | 102.14519 | 32906 ft | 480 kts | 117° |
| 2026-05-06 13:15 | 13.11594 | 102.17588 | 33165 ft | 481 kts | 116° |
| 2026-05-06 13:15 | 13.10102 | 102.20654 | 33488 ft | 480 kts | 117° |
| 2026-05-06 13:15 | 13.08613 | 102.23713 | 33830 ft | 479 kts | 117° |
| 2026-05-06 13:15 | 13.07143 | 102.26736 | 34094 ft | 479 kts | 117° |
| 2026-05-06 13:16 | 13.05656 | 102.29799 | 34385 ft | 478 kts | 117° |
| 2026-05-06 13:16 | 13.04178 | 102.32843 | 34707 ft | 477 kts | 117° |
| 2026-05-06 13:16 | 13.02697 | 102.35894 | 34849 ft | 476 kts | 117° |
| 2026-05-06 13:17 | 12.99737 | 102.41986 | 34880 ft | 475 kts | 117° |
| 2026-05-06 13:17 | 12.96807 | 102.48000 | 34881 ft | 473 kts | 117° |
| 2026-05-06 13:18 | 12.93679 | 102.53928 | 34875 ft | 472 kts | 121° |
| 2026-05-06 13:18 | 12.90196 | 102.59660 | 34876 ft | 472 kts | 123° |
| 2026-05-06 13:19 | 12.86684 | 102.65306 | 34880 ft | 472 kts | 122° |
| 2026-05-06 13:19 | 12.83232 | 102.71040 | 34878 ft | 472 kts | 121° |
| 2026-05-06 13:20 | 12.79834 | 102.76795 | 34882 ft | 472 kts | 122° |
| 2026-05-06 13:20 | 12.76428 | 102.82544 | 34882 ft | 471 kts | 122° |
| 2026-05-06 13:21 | 12.73030 | 102.88242 | 34891 ft | 470 kts | 122° |
| 2026-05-06 13:21 | 12.69607 | 102.93961 | 34887 ft | 470 kts | 122° |
| 2026-05-06 13:22 | 12.66197 | 102.99676 | 34886 ft | 470 kts | 122° |
| 2026-05-06 13:22 | 12.62780 | 103.05399 | 34885 ft | 470 kts | 122° |
| 2026-05-06 13:23 | 12.59381 | 103.11086 | 34881 ft | 470 kts | 122° |
| 2026-05-06 13:23 | 12.55983 | 103.16770 | 34883 ft | 469 kts | 122° |
| 2026-05-06 13:24 | 12.52565 | 103.22475 | 34878 ft | 469 kts | 122° |
| 2026-05-06 13:24 | 12.49158 | 103.28170 | 34876 ft | 469 kts | 122° |
| 2026-05-06 13:25 | 12.45740 | 103.33872 | 34872 ft | 469 kts | 122° |
| 2026-05-06 13:25 | 12.42333 | 103.39545 | 34889 ft | 469 kts | 122° |
| 2026-05-06 13:26 | 12.38925 | 103.45230 | 34887 ft | 468 kts | 122° |
| 2026-05-06 13:26 | 12.35514 | 103.50922 | 34880 ft | 468 kts | 122° |
| 2026-05-06 13:27 | 12.32121 | 103.56553 | 34880 ft | 468 kts | 122° |
| 2026-05-06 13:27 | 12.28698 | 103.62225 | 34875 ft | 468 kts | 122° |
| 2026-05-06 13:28 | 12.25283 | 103.67908 | 34892 ft | 468 kts | 122° |
| 2026-05-06 13:28 | 12.21880 | 103.73571 | 34893 ft | 468 kts | 122° |
| 2026-05-06 13:29 | 12.18470 | 103.79208 | 34886 ft | 468 kts | 122° |
| 2026-05-06 13:29 | 12.15030 | 103.84882 | 34892 ft | 468 kts | 122° |
| 2026-05-06 13:30 | 12.11590 | 103.90544 | 34898 ft | 468 kts | 122° |
| 2026-05-06 13:30 | 12.08169 | 103.96178 | 34898 ft | 468 kts | 122° |
| 2026-05-06 13:31 | 12.04731 | 104.01841 | 34898 ft | 469 kts | 123° |
| 2026-05-06 13:31 | 12.01282 | 104.07528 | 34874 ft | 470 kts | 122° |
| 2026-05-06 13:32 | 11.97841 | 104.13195 | 34871 ft | 472 kts | 122° |
| 2026-05-06 13:32 | 11.94364 | 104.18910 | 34878 ft | 473 kts | 123° |
| 2026-05-06 13:33 | 11.90884 | 104.24620 | 34877 ft | 473 kts | 122° |
| 2026-05-06 13:33 | 11.87425 | 104.30308 | 34878 ft | 473 kts | 122° |
| 2026-05-06 13:34 | 11.83942 | 104.36031 | 34875 ft | 474 kts | 122° |
| 2026-05-06 13:34 | 11.81052 | 104.40778 | 34871 ft | 473 kts | 122° |
| 2026-05-06 13:35 | 11.77562 | 104.46496 | 34871 ft | 473 kts | 122° |
| 2026-05-06 13:35 | 11.74091 | 104.52179 | 34868 ft | 473 kts | 122° |
| 2026-05-06 13:36 | 11.70608 | 104.57887 | 34865 ft | 473 kts | 122° |
| 2026-05-06 13:36 | 11.67129 | 104.63591 | 34863 ft | 473 kts | 122° |
| 2026-05-06 13:37 | 11.63656 | 104.69257 | 34868 ft | 472 kts | 122° |
| 2026-05-06 13:37 | 11.60201 | 104.74907 | 34875 ft | 470 kts | 122° |
| 2026-05-06 13:38 | 11.58464 | 104.77749 | 34876 ft | 470 kts | 122° |